Land O' Lakes, WI

8:14 AM CDT on September 25, 2016 (GMT -0500)
Kings Land O'Lakes

Weather History for KLNL - April, 2014

Change the Weather History Date:

Wednesday, April 23, 2014

  Actual Average (KEGV) Record (KEGV)
Temperature  
Mean Temperature 36 °F -  
Max Temperature 54 °F 58 °F 73 °F (1998)
Min Temperature 18 °F 30 °F 20 °F (2014)
Degree Days  
Heating Degree Days 29    
Moisture  
Dew Point 19 °F    
Average Humidity 54    
Maximum Humidity 96    
Minimum Humidity 21    
Precipitation  
Precipitation 0.00 in - - ()
Sea Level Pressure  
Sea Level Pressure 30.11 in    
Wind  
Wind Speed 2 mph (SSE)    
Max Wind Speed 8 mph    
Max Gust Speed -    
Visibility 10 miles    
Events      
Averages and records for this station are not official NWS values.
T = Trace of Precipitation, MM = Missing Value Source: NWS Daily Summary

Daily Weather History Graph

Daily Weather History Graph

Search for Another Location

Airport or City:

Trip Planner

Search our weather history database for the weather conditions in past years. The results will help you decide how hot, cold, wet, or windy it might be!

Date:

Astronomy

Apr. 23, 2014 Rise Set
Actual Time 5:56 AM CDT 7:54 PM CDT
Civil Twilight 5:24 AM CDT 8:27 PM CDT
Nautical Twilight 4:44 AM CDT 9:06 PM CDT
Astronomical Twilight 4:01 AM CDT 9:50 PM CDT
Moon 2:48 AM CDT (4/23) 1:43 PM CDT (4/23)
Length of Visible Light 15h 02m
Length of Day
13h 58m
Waning Crescent, 34% of the Moon is Illuminated
Apr 23
Waning Crescent
Apr 29
New
May 6
First Quarter
May 14
Full
May 21
Last Quarter

Hourly Weather History & Observations

Time (CDT) Temp. Windchill Dew Point Humidity Pressure Visibility Wind Dir Wind Speed Gust Speed Precip Events Conditions
12:15 AM 24.6 °F - 23.5 °F 96% 30.11 in 10.0 mi Calm Calm - N/A   Clear
12:35 AM 23.9 °F - 23.0 °F 96% 30.12 in 10.0 mi Calm Calm - N/A   Clear
12:55 AM 23.7 °F - 22.6 °F 96% 30.12 in 10.0 mi Calm Calm - N/A   Clear
1:15 AM 23.0 °F - 22.1 °F 96% 30.12 in 10.0 mi Calm Calm - N/A   Clear
1:35 AM 22.5 °F - 21.6 °F 96% 30.12 in 10.0 mi Calm Calm - N/A   Clear
1:55 AM 21.9 °F - 21.0 °F 96% 30.13 in 10.0 mi Calm Calm - N/A   Clear
2:15 AM 21.9 °F - 21.0 °F 96% 30.13 in 10.0 mi Calm Calm - N/A   Clear
2:35 AM 22.1 °F - 21.0 °F 96% 30.13 in 10.0 mi Calm Calm - N/A   Clear
2:55 AM 20.8 °F - 19.4 °F 94% 30.13 in 10.0 mi Calm Calm - N/A   Clear
3:15 AM 20.3 °F - 19.4 °F 96% 30.13 in 10.0 mi Calm Calm - N/A   Clear
3:55 AM 19.9 °F - 18.9 °F 96% 30.14 in 10.0 mi Calm Calm - N/A   Clear
4:15 AM 20.1 °F - 18.9 °F 95% 30.13 in 10.0 mi Calm Calm - N/A   Clear
4:35 AM 18.9 °F - 17.4 °F 94% 30.14 in 10.0 mi Calm Calm - N/A   Clear
4:55 AM 19.0 °F - 17.8 °F 95% 30.14 in 10.0 mi Calm Calm - N/A   Clear
5:15 AM 18.5 °F - 16.9 °F 93% 30.14 in 10.0 mi Calm Calm - N/A   Clear
5:35 AM 19.4 °F - 17.8 °F 93% 30.14 in 10.0 mi Calm Calm - N/A   Clear
5:55 AM 18.1 °F - 16.5 °F 93% 30.14 in 10.0 mi Calm Calm - N/A   Clear
6:15 AM 18.3 °F - 16.9 °F 94% 30.15 in 10.0 mi Calm Calm - N/A   Clear
6:35 AM 19.6 °F - 18.3 °F 95% 30.15 in 10.0 mi Calm Calm - N/A   Clear
6:55 AM 22.5 °F - 21.2 °F 95% 30.16 in 10.0 mi Calm Calm - N/A   Clear
7:15 AM 25.3 °F - 23.7 °F 94% 30.15 in 10.0 mi Calm Calm - N/A   Clear
7:35 AM 28.4 °F - 26.1 °F 91% 30.16 in 10.0 mi Calm Calm - N/A   Clear
7:55 AM 31.3 °F - 27.5 °F 86% 30.17 in 10.0 mi Calm Calm - N/A   Clear
8:15 AM 32.9 °F - 29.1 °F 86% 30.16 in 10.0 mi Calm Calm - N/A   Clear
8:35 AM 36.0 °F - 27.5 °F 71% 30.17 in 10.0 mi Calm Calm - N/A   Clear
8:55 AM 39.0 °F - 25.9 °F 59% 30.17 in 10.0 mi Calm Calm - N/A   Clear
9:15 AM 40.5 °F - 25.9 °F 56% 30.16 in 10.0 mi Calm Calm - N/A   Clear
9:35 AM 41.0 °F - 25.0 °F 53% 30.15 in 10.0 mi Calm Calm - N/A   Clear
9:55 AM 43.0 °F 41.3 °F 24.6 °F 48% 30.15 in 10.0 mi NE 3.5 mph - N/A   Clear
10:15 AM 43.7 °F - 24.3 °F 46% 30.15 in 10.0 mi Calm Calm - N/A   Clear
10:35 AM 44.8 °F 40.4 °F 23.7 °F 44% 30.14 in 10.0 mi East 8.1 mph - N/A   Clear
10:55 AM 45.5 °F 42.5 °F 22.8 °F 41% 30.13 in 10.0 mi ESE 5.8 mph - N/A   Clear
11:15 AM 46.4 °F 42.9 °F 20.8 °F 36% 30.13 in 10.0 mi SE 6.9 mph - N/A   Clear
11:35 AM 46.6 °F - 20.7 °F 36% 30.13 in 10.0 mi SE 5.8 mph - N/A   Clear
11:55 AM 47.5 °F - 19.8 °F 33% 30.14 in 10.0 mi East 3.5 mph - N/A   Clear
12:15 PM 48.2 °F - 16.5 °F 28% 30.14 in 10.0 mi South 5.8 mph - N/A   Clear
12:35 PM 48.4 °F - 16.7 °F 28% 30.14 in 10.0 mi ESE 3.5 mph - N/A   Clear
12:55 PM 49.1 °F - 18.3 °F 30% 30.13 in 10.0 mi SE 4.6 mph - N/A   Clear
1:15 PM 49.5 °F - 18.3 °F 29% 30.12 in 10.0 mi Calm Calm - N/A   Clear
1:35 PM 50.9 °F - 15.1 °F 24% 30.12 in 10.0 mi SSE 5.8 mph - N/A   Clear
1:55 PM 51.8 °F - 16.3 °F 25% 30.12 in 10.0 mi SE 6.9 mph - N/A   Clear
2:15 PM 52.2 °F - 16.5 °F 24% 30.11 in 10.0 mi East 6.9 mph - N/A   Clear
2:55 PM 52.7 °F - 16.0 °F 23% 30.09 in 10.0 mi SE 6.9 mph - N/A   Clear
3:15 PM 53.4 °F - 16.2 °F 23% 30.09 in 10.0 mi ENE 3.5 mph - N/A   Clear
3:35 PM 53.1 °F - 15.8 °F 23% 30.09 in 10.0 mi East 4.6 mph - N/A   Clear
3:55 PM 53.2 °F - 14.4 °F 21% 30.08 in 10.0 mi Calm Calm - N/A   Clear
4:15 PM 54.1 °F - 16.2 °F 22% 30.07 in 10.0 mi South 5.8 mph - N/A   Clear
4:35 PM 53.1 °F - 14.9 °F 22% 30.07 in 10.0 mi SSE 5.8 mph - N/A   Clear
4:55 PM 53.2 °F - 15.1 °F 22% 30.06 in 10.0 mi SE 3.5 mph - N/A   Clear
5:15 PM 53.2 °F - 16.3 °F 23% 30.06 in 10.0 mi SSE 4.6 mph - N/A   Clear
5:35 PM 53.4 °F - 16.0 °F 23% 30.06 in 10.0 mi SSE 5.8 mph - N/A   Clear
6:15 PM 52.7 °F - 18.1 °F 26% 30.05 in 10.0 mi South 4.6 mph - N/A   Clear
6:35 PM 51.8 °F - 17.8 °F 26% 30.05 in 10.0 mi South 4.6 mph - N/A   Clear
6:55 PM 50.9 °F - 17.8 °F 27% 30.05 in 10.0 mi South 4.6 mph - N/A   Clear
7:15 PM 50.0 °F - 18.1 °F 28% 30.04 in 10.0 mi South 3.5 mph - N/A   Clear
7:35 PM 49.1 °F - 18.0 °F 29% 30.03 in 10.0 mi SSE 3.5 mph - N/A   Clear
7:55 PM 47.8 °F - 17.6 °F 30% 30.03 in 10.0 mi SSE 3.5 mph - N/A   Clear
8:15 PM 46.2 °F - 18.0 °F 32% 30.03 in 10.0 mi Calm Calm - N/A   Clear
8:35 PM 43.5 °F - 19.8 °F 39% 30.03 in 10.0 mi Calm Calm - N/A   Clear
8:55 PM 42.8 °F 41.1 °F 19.4 °F 39% 30.03 in 10.0 mi SSE 3.5 mph - N/A   Clear
9:15 PM 44.4 °F 42.0 °F 18.7 °F 36% 30.04 in 10.0 mi SSE 4.6 mph - N/A   Clear
9:35 PM 45.0 °F 42.6 °F 18.3 °F 35% 30.04 in 10.0 mi South 4.6 mph - N/A   Clear
9:55 PM 44.8 °F 41.0 °F 19.8 °F 37% 30.05 in 10.0 mi South 6.9 mph - N/A   Clear
10:15 PM 44.1 °F 42.5 °F 20.3 °F 39% 30.06 in 10.0 mi SSE 3.5 mph - N/A   Clear
10:35 PM 43.5 °F 40.9 °F 18.9 °F 37% 30.06 in 10.0 mi South 4.6 mph - N/A   Clear
10:55 PM 43.0 °F 38.8 °F 14.7 °F 32% 30.06 in 10.0 mi South 6.9 mph - N/A   Scattered Clouds
11:15 PM 42.4 °F 39.6 °F 13.8 °F 31% 30.07 in 10.0 mi South 4.6 mph - N/A   Mostly Cloudy
11:35 PM 41.9 °F 39.0 °F 14.0 °F 32% 30.06 in 10.0 mi South 4.6 mph - N/A   Overcast
11:55 PM 41.2 °F 38.2 °F 14.2 °F 33% 30.07 in 10.0 mi SE 4.6 mph - N/A   Overcast